Time;durP1;ratioP1;P1;durP2;ratioP2;P2;SDS_P1;SDS_P2;PMS_P1;PMS_P2;Temp;Humidity;BMP_temperature;BMP_pressure;BME280_temperature;BME280_humidity;BME280_pressure;Samples;Min_cycle;Max_cycle;Signal;HPM_P1;HPM_P2
2022/05/18 00:01:06;;;;;;;9.35;5.25;;;20.00;99.90;;;;;;5036907;28;20048;-70
2022/05/18 00:03:40;;;;;;;8.00;5.00;;;20.00;99.90;;;;;;5055061;28;20132;-70
2022/05/18 00:06:06;;;;;;;7.22;4.78;;;19.90;99.90;;;;;;5055045;28;20053;-69
2022/05/18 00:08:36;;;;;;;11.30;6.82;;;19.80;99.90;;;;;;5054748;28;20515;-69
2022/05/18 00:11:04;;;;;;;12.77;6.07;;;19.80;99.90;;;;;;5054749;28;20049;-70
2022/05/18 00:13:29;;;;;;;12.10;6.05;;;19.80;99.90;;;;;;5054625;28;20044;-70
2022/05/18 00:15:55;;;;;;;13.55;6.55;;;19.80;99.90;;;;;;5054407;28;20045;-70
2022/05/18 00:18:21;;;;;;;11.70;6.05;;;19.70;99.90;;;;;;5054049;28;20574;-70
2022/05/18 00:20:46;;;;;;;10.88;6.07;;;19.70;99.90;;;;;;5037291;28;20134;-70
2022/05/18 00:23:12;;;;;;;8.88;5.35;;;19.70;99.90;;;;;;5053957;28;20401;-70
2022/05/18 00:25:40;;;;;;;9.32;5.13;;;19.70;99.90;;;;;;5054593;28;20052;-70
2022/05/18 00:28:06;;;;;;;10.43;5.72;;;19.70;99.90;;;;;;5054445;28;20048;-70
2022/05/18 00:30:33;;;;;;;12.38;6.55;;;19.70;99.90;;;;;;5054680;28;20071;-70
2022/05/18 00:33:05;;;;;;;7.38;5.10;;;19.60;99.90;;;;;;5054369;28;20041;-70
2022/05/18 00:35:33;;;;;;;7.93;4.85;;;19.60;99.90;;;;;;5054675;28;20044;-70
2022/05/18 00:38:00;;;;;;;10.05;5.65;;;19.50;99.90;;;;;;5054137;28;20490;-70
2022/05/18 00:40:26;;;;;;;11.68;6.03;;;19.40;99.90;;;;;;5053937;28;20461;-70
2022/05/18 00:42:52;;;;;;;12.32;5.88;;;19.50;99.90;;;;;;5053963;28;20047;-70
2022/05/18 00:45:18;;;;;;;8.75;5.80;;;19.30;99.90;;;;;;5053741;28;20045;-69
2022/05/18 00:47:44;;;;;;;9.32;5.72;;;19.20;99.90;;;;;;5054199;28;20044;-69
2022/05/18 00:50:19;;;;;;;10.57;5.22;;;19.30;99.90;;;;;;5054098;28;20045;-69
2022/05/18 00:53:09;;;;;;;9.15;5.05;;;19.30;99.90;;;;;;5053884;28;20052;-70
2022/05/18 00:55:42;;;;;;;7.78;5.32;;;19.30;99.90;;;;;;5054265;28;20061;-69
2022/05/18 00:58:27;;;;;;;8.77;5.68;;;19.20;99.90;;;;;;5036097;28;20055;-69
2022/05/18 01:00:53;;;;;;;7.57;5.25;;;19.20;99.90;;;;;;5053768;28;20051;-69
2022/05/18 01:03:23;;;;;;;9.27;5.53;;;19.20;99.90;;;;;;5053786;28;20098;-70
2022/05/18 01:05:55;;;;;;;9.63;5.38;;;19.10;99.90;;;;;;5053650;28;20489;-70
2022/05/18 01:08:32;;;;;;;9.73;5.50;;;19.10;99.90;;;;;;5054204;28;20053;-70
2022/05/18 01:10:58;;;;;;;11.57;5.50;;;19.10;99.90;;;;;;5053571;28;20589;-70
2022/05/18 01:13:24;;;;;;;8.32;5.07;;;19.10;99.90;;;;;;5053529;28;20128;-70
2022/05/18 01:15:50;;;;;;;8.63;5.00;;;19.10;99.90;;;;;;5035549;28;20045;-70
2022/05/18 01:18:16;;;;;;;10.88;5.53;;;19.00;99.90;;;;;;5035891;28;20048;-70
2022/05/18 01:20:44;;;;;;;6.38;4.70;;;19.00;99.90;;;;;;5053644;28;20052;-70
2022/05/18 01:23:43;;;;;;;10.95;5.78;;;19.00;99.90;;;;;;5053057;28;20041;-70
2022/05/18 01:26:40;;;;;;;8.85;5.75;;;18.90;99.90;;;;;;5035677;28;20456;-70
2022/05/18 01:29:06;;;;;;;8.80;5.35;;;18.90;99.90;;;;;;5036130;28;20106;-70
2022/05/18 01:31:44;;;;;;;10.50;6.40;;;18.90;99.90;;;;;;5035213;28;20081;-70
2022/05/18 01:34:10;;;;;;;8.90;6.38;;;18.90;99.90;;;;;;5053614;28;20045;-70
2022/05/18 01:36:36;;;;;;;10.20;5.65;;;18.80;99.90;;;;;;5035395;28;20040;-70
2022/05/18 01:39:02;;;;;;;9.35;5.93;;;18.80;99.90;;;;;;5053181;28;20091;-70
2022/05/18 01:41:34;;;;;;;9.43;5.57;;;18.80;99.90;;;;;;5053025;28;20076;-70
2022/05/18 01:44:01;;;;;;;10.23;5.70;;;18.80;99.90;;;;;;5052882;28;20057;-70
2022/05/18 01:46:30;;;;;;;10.18;5.47;;;18.70;99.90;;;;;;5053373;28;20052;-70
2022/05/18 01:48:56;;;;;;;8.73;4.88;;;18.70;99.90;;;;;;5053059;28;20053;-70
2022/05/18 01:51:43;;;;;;;8.95;5.10;;;18.70;99.90;;;;;;5035689;28;20045;-70
2022/05/18 01:54:09;;;;;;;9.48;5.32;;;18.70;99.90;;;;;;5053411;28;20045;-70
2022/05/18 01:56:35;;;;;;;8.15;5.47;;;18.70;99.90;;;;;;5053611;28;20072;-70
2022/05/18 01:59:00;;;;;;;8.25;4.80;;;18.80;99.90;;;;;;5052890;28;20084;-70
2022/05/18 02:01:26;;;;;;;8.15;5.65;;;18.70;99.90;;;;;;5035582;28;20103;-70
2022/05/18 02:03:53;;;;;;;11.20;6.00;;;18.70;99.90;;;;;;5052788;28;20081;-70
2022/05/18 02:06:19;;;;;;;9.13;5.80;;;18.60;99.90;;;;;;5053052;28;20053;-74
2022/05/18 02:08:45;;;;;;;7.82;5.70;;;18.70;99.90;;;;;;5052937;28;20041;-70
2022/05/18 02:11:17;;;;;;;9.90;6.00;;;18.60;99.90;;;;;;5052925;28;20071;-70
2022/05/18 02:13:43;;;;;;;10.52;5.65;;;18.60;99.90;;;;;;5035496;28;20059;-70
2022/05/18 02:16:10;;;;;;;6.68;5.10;;;18.60;99.90;;;;;;5034875;28;20098;-70
2022/05/18 02:18:35;;;;;;;11.00;5.28;;;18.60;99.90;;;;;;5052957;28;20045;-70
2022/05/18 02:21:07;;;;;;;9.48;5.43;;;18.60;99.90;;;;;;5052891;28;20486;-70
2022/05/18 02:23:33;;;;;;;10.50;5.60;;;18.50;99.90;;;;;;5052843;28;20096;-70
2022/05/18 02:26:04;;;;;;;9.10;6.07;;;18.40;99.90;;;;;;5052663;28;20505;-70
2022/05/18 02:28:29;;;;;;;9.48;6.32;;;18.30;99.90;;;;;;5035196;28;20136;-70
2022/05/18 02:30:55;;;;;;;10.77;6.22;;;18.30;99.90;;;;;;5052584;28;20132;-70
2022/05/18 02:33:21;;;;;;;10.30;5.82;;;18.30;99.90;;;;;;5035617;28;20151;-70
2022/05/18 02:35:46;;;;;;;10.68;5.70;;;18.30;99.90;;;;;;5035445;28;20051;-70
2022/05/18 02:38:12;;;;;;;11.43;6.03;;;18.30;99.90;;;;;;5052639;28;20088;-70
2022/05/18 02:40:37;;;;;;;7.45;5.43;;;18.30;99.90;;;;;;5053006;28;20087;-70
2022/05/18 02:43:03;;;;;;;7.25;5.35;;;18.30;99.90;;;;;;5055557;28;20512;-70
2022/05/18 02:45:29;;;;;;;10.57;5.82;;;18.20;99.90;;;;;;5055894;28;20051;-72
2022/05/18 02:47:54;;;;;;;9.32;5.75;;;18.20;99.90;;;;;;5056698;28;20366;-70
2022/05/18 02:50:20;;;;;;;8.70;6.20;;;18.20;99.90;;;;;;5038449;28;20041;-70
2022/05/18 02:52:46;;;;;;;11.48;5.97;;;18.10;99.90;;;;;;5056298;28;20051;-70
2022/05/18 02:57:57;;;;;;;8.75;5.80;;;18.10;99.90;;;;;;5056188;28;20111;-70
2022/05/18 03:00:23;;;;;;;9.05;5.82;;;18.20;99.90;;;;;;5038465;28;20432;-70
2022/05/18 03:02:49;;;;;;;12.10;6.28;;;18.20;99.90;;;;;;5056144;28;20037;-70
2022/05/18 03:05:14;;;;;;;9.05;6.45;;;18.10;99.90;;;;;;5055655;28;20048;-70
2022/05/18 03:07:40;;;;;;;11.90;6.15;;;18.10;99.90;;;;;;5055904;28;20045;-70
2022/05/18 03:10:07;;;;;;;8.85;5.97;;;18.10;99.90;;;;;;5038291;28;20053;-70
2022/05/18 03:12:33;;;;;;;11.50;6.28;;;18.10;99.90;;;;;;5038281;28;20127;-71
2022/05/18 03:14:59;;;;;;;8.18;5.93;;;18.00;99.90;;;;;;5055436;28;20088;-70
2022/05/18 03:17:25;;;;;;;8.05;5.80;;;17.90;99.90;;;;;;5055627;28;20508;-70
2022/05/18 03:19:50;;;;;;;11.10;5.97;;;18.00;99.90;;;;;;5055883;28;20218;-70
2022/05/18 03:25:02;;;;;;;10.88;6.43;;;17.90;99.90;;;;;;5055233;28;20087;-70
2022/05/18 03:27:28;;;;;;;8.95;5.82;;;17.80;99.90;;;;;;5038060;28;20060;-70
2022/05/18 03:29:54;;;;;;;9.60;6.20;;;17.90;99.90;;;;;;5037932;28;20088;-70
2022/05/18 03:32:22;;;;;;;9.40;6.07;;;17.90;99.90;;;;;;5037765;28;20138;-70
2022/05/18 03:34:49;;;;;;;11.65;6.72;;;17.90;99.90;;;;;;5055463;28;20570;-70
2022/05/18 03:37:16;;;;;;;9.95;6.07;;;17.90;99.90;;;;;;5055541;28;20051;-70
2022/05/18 03:39:42;;;;;;;10.80;6.53;;;17.90;99.90;;;;;;5055170;28;20047;-70
2022/05/18 03:42:08;;;;;;;10.95;6.28;;;17.90;99.90;;;;;;5055149;28;20389;-71
2022/05/18 03:44:34;;;;;;;9.38;6.72;;;18.00;99.90;;;;;;5054897;28;20045;-70
2022/05/18 03:47:00;;;;;;;8.88;5.93;;;17.90;99.90;;;;;;5055168;28;20095;-70
2022/05/18 03:49:25;;;;;;;9.52;6.15;;;17.90;99.90;;;;;;5055305;28;20051;-70
2022/05/18 03:51:51;;;;;;;7.68;5.82;;;17.90;99.90;;;;;;5055174;28;20547;-70
2022/05/18 03:54:17;;;;;;;10.52;7.10;;;17.90;99.90;;;;;;5054236;28;20040;-70
2022/05/18 03:56:43;;;;;;;10.95;6.72;;;17.80;99.90;;;;;;5037041;28;20081;-70
2022/05/18 03:59:09;;;;;;;8.23;5.78;;;17.70;99.90;;;;;;5055154;28;20080;-70
2022/05/18 04:01:34;;;;;;;8.73;6.32;;;17.70;99.90;;;;;;5054637;28;20048;-70
2022/05/18 04:04:00;;;;;;;9.07;5.53;;;17.70;99.90;;;;;;5037014;28;20044;-70
2022/05/18 04:06:26;;;;;;;11.00;5.90;;;17.70;99.90;;;;;;5037397;28;20045;-70
2022/05/18 04:08:52;;;;;;;9.80;5.95;;;17.70;99.90;;;;;;5037074;28;20135;-70
2022/05/18 04:11:18;;;;;;;10.32;6.28;;;17.70;99.90;;;;;;5054819;28;20112;-70
2022/05/18 04:13:44;;;;;;;9.30;5.90;;;17.60;99.90;;;;;;5054653;28;20527;-70
2022/05/18 04:16:10;;;;;;;10.07;6.80;;;17.60;99.90;;;;;;5054229;28;20055;-70
2022/05/18 04:18:36;;;;;;;12.75;7.47;;;17.60;99.90;;;;;;5053397;28;20041;-70
2022/05/18 04:21:03;;;;;;;6.93;5.55;;;17.70;99.90;;;;;;5053181;28;20375;-71
2022/05/18 04:23:29;;;;;;;10.10;6.03;;;17.70;99.90;;;;;;5053901;28;20566;-70
2022/05/18 04:25:55;;;;;;;9.82;6.63;;;17.70;99.90;;;;;;5054755;28;20053;-70
2022/05/18 04:28:21;;;;;;;9.57;5.53;;;17.80;99.90;;;;;;5054613;28;20433;-70
2022/05/18 04:30:48;;;;;;;9.13;5.70;;;17.80;99.90;;;;;;5054487;28;20102;-70
2022/05/18 04:33:18;;;;;;;12.50;5.95;;;17.70;99.90;;;;;;5054435;28;20045;-70
2022/05/18 04:35:44;;;;;;;11.70;6.22;;;17.80;99.90;;;;;;5054028;28;20041;-70
2022/05/18 04:38:10;;;;;;;13.05;6.22;;;17.90;99.90;;;;;;5053937;28;20132;-70
2022/05/18 04:40:36;;;;;;;9.32;5.80;;;17.90;99.90;;;;;;5036673;28;20129;-70
2022/05/18 04:43:01;;;;;;;10.30;5.75;;;17.90;99.90;;;;;;5054275;28;20041;-70
2022/05/18 04:45:27;;;;;;;10.98;6.07;;;17.90;99.90;;;;;;5053874;28;20159;-70
2022/05/18 04:47:53;;;;;;;9.05;5.60;;;18.00;99.90;;;;;;5053842;28;20051;-70
2022/05/18 04:50:20;;;;;;;11.63;5.60;;;18.00;99.90;;;;;;5054038;28;20053;-70
2022/05/18 04:52:47;;;;;;;11.63;6.18;;;18.10;99.90;;;;;;5053661;28;20049;-70
2022/05/18 04:55:12;;;;;;;9.23;5.80;;;18.20;99.90;;;;;;5054476;28;20102;-70
2022/05/18 04:57:39;;;;;;;10.63;6.38;;;18.40;99.90;;;;;;5053850;28;20045;-70
2022/05/18 05:00:10;;;;;;;14.73;6.35;;;18.40;99.90;;;;;;5053771;28;20052;-70
2022/05/18 05:02:36;;;;;;;9.32;6.47;;;18.40;99.90;;;;;;5053435;28;20052;-70
2022/05/18 05:05:05;;;;;;;12.90;6.30;;;18.50;99.90;;;;;;5052734;28;20467;-70
2022/05/18 05:07:31;;;;;;;10.85;6.97;;;18.50;99.90;;;;;;5053680;28;20056;-70
2022/05/18 05:09:56;;;;;;;10.85;6.32;;;18.60;99.90;;;;;;5053690;28;20052;-70
2022/05/18 05:12:25;;;;;;;10.68;6.40;;;18.70;99.90;;;;;;5036294;28;20045;-70
2022/05/18 05:14:50;;;;;;;10.23;6.43;;;18.80;99.90;;;;;;5053060;28;20049;-70
2022/05/18 05:17:16;;;;;;;10.85;6.65;;;18.80;99.90;;;;;;5053690;28;20052;-70
2022/05/18 05:19:42;;;;;;;10.43;6.35;;;19.00;99.90;;;;;;5053366;28;20131;-71
2022/05/18 05:22:07;;;;;;;11.05;6.22;;;19.00;99.90;;;;;;5035688;28;20071;-70
2022/05/18 05:24:33;;;;;;;9.73;6.70;;;19.10;99.90;;;;;;5053524;28;20057;-70
2022/05/18 05:26:59;;;;;;;9.25;6.40;;;19.20;99.90;;;;;;5053476;28;20505;-70
2022/05/18 05:29:24;;;;;;;8.98;6.32;;;19.30;99.90;;;;;;5053808;28;20128;-70
2022/05/18 05:31:50;;;;;;;9.77;6.30;;;19.40;99.90;;;;;;5053175;28;20049;-70
2022/05/18 05:34:16;;;;;;;11.05;7.18;;;19.50;99.90;;;;;;5053508;28;20069;-70
2022/05/18 05:36:41;;;;;;;12.60;7.28;;;19.50;99.90;;;;;;5053254;28;20088;-70
2022/05/18 05:39:07;;;;;;;11.48;6.90;;;19.60;99.90;;;;;;5053419;28;20049;-70
2022/05/18 05:41:33;;;;;;;12.35;7.28;;;19.70;99.90;;;;;;5053250;28;20433;-70
2022/05/18 05:43:59;;;;;;;13.50;7.80;;;19.70;99.90;;;;;;5053138;28;20040;-70
2022/05/18 05:46:27;;;;;;;10.10;6.70;;;19.70;99.90;;;;;;5053050;28;20041;-70
2022/05/18 05:48:55;;;;;;;12.85;8.13;;;19.80;99.90;;;;;;5052949;28;20130;-71
2022/05/18 05:51:23;;;;;;;11.57;7.28;;;19.80;99.90;;;;;;5053333;28;20041;-70
2022/05/18 05:53:51;;;;;;;10.25;7.32;;;19.90;99.90;;;;;;5053413;28;20397;-70
2022/05/18 05:56:18;;;;;;;11.57;7.25;;;19.90;99.90;;;;;;5053026;28;20623;-70
2022/05/18 05:58:44;;;;;;;13.18;7.82;;;19.70;99.90;;;;;;5053222;28;20127;-70
2022/05/18 06:01:12;;;;;;;12.40;6.70;;;19.80;99.90;;;;;;5053254;28;20214;-70
2022/05/18 06:03:39;;;;;;;13.93;7.90;;;19.90;99.90;;;;;;5052559;28;20049;-70
2022/05/18 06:06:06;;;;;;;12.45;7.22;;;20.00;99.90;;;;;;5052940;28;20509;-70
2022/05/18 06:08:32;;;;;;;11.80;7.60;;;20.10;99.90;;;;;;5052757;28;20081;-70
2022/05/18 06:10:59;;;;;;;16.05;8.80;;;20.30;99.90;;;;;;5052912;28;20056;-70
2022/05/18 06:13:26;;;;;;;11.57;7.55;;;20.40;99.90;;;;;;5053068;28;20128;-70
2022/05/18 06:15:52;;;;;;;12.93;8.27;;;20.30;99.90;;;;;;5052420;28;20052;-70
2022/05/18 06:18:18;;;;;;;14.38;8.80;;;20.40;99.90;;;;;;5056638;28;20127;-70
2022/05/18 06:20:46;;;;;;;12.32;7.32;;;20.40;99.90;;;;;;5057027;28;20052;-70
2022/05/18 06:23:11;;;;;;;12.15;8.45;;;20.30;99.90;;;;;;5056594;28;20087;-70
2022/05/18 06:25:37;;;;;;;12.32;7.95;;;20.50;99.90;;;;;;5056747;28;20056;-70
2022/05/18 06:28:05;;;;;;;15.27;9.32;;;20.50;99.90;;;;;;5056641;28;20102;-70
2022/05/18 06:30:31;;;;;;;14.60;9.40;;;20.70;99.90;;;;;;5056664;28;20049;-70
2022/05/18 06:32:56;;;;;;;15.05;8.93;;;20.60;99.90;;;;;;5038969;28;20055;-70
2022/05/18 06:35:22;;;;;;;10.35;8.48;;;20.50;99.90;;;;;;5056647;28;20045;-70
2022/05/18 06:37:49;;;;;;;13.10;8.77;;;20.50;99.90;;;;;;5056300;28;20570;-70
2022/05/18 06:40:16;;;;;;;13.63;9.27;;;20.70;99.90;;;;;;5056530;28;20509;-70
2022/05/18 06:42:43;;;;;;;13.88;9.55;;;20.70;99.90;;;;;;5056435;28;20071;-69
2022/05/18 06:45:10;;;;;;;13.27;8.98;;;20.80;99.90;;;;;;5055803;28;20493;-70
2022/05/18 06:47:36;;;;;;;15.60;9.70;;;20.90;99.90;;;;;;5056331;28;20131;-70
2022/05/18 06:50:03;;;;;;;14.45;9.32;;;21.00;99.90;;;;;;5056488;28;20068;-70
2022/05/18 06:52:29;;;;;;;13.63;9.00;;;21.20;99.90;;;;;;5056204;28;20424;-70
2022/05/18 06:54:54;;;;;;;15.93;10.05;;;21.30;99.90;;;;;;5038797;28;20067;-70
2022/05/18 06:57:20;;;;;;;14.85;9.20;;;21.40;99.90;;;;;;5038643;28;20084;-70
2022/05/18 06:59:46;;;;;;;15.55;9.80;;;21.40;99.90;;;;;;5056023;28;20095;-69
2022/05/18 07:02:12;;;;;;;13.60;9.65;;;21.50;99.90;;;;;;5056070;28;20084;-69
2022/05/18 07:04:37;;;;;;;13.98;9.13;;;21.60;99.90;;;;;;5055916;28;20083;-70
2022/05/18 07:07:04;;;;;;;15.68;9.80;;;21.70;99.90;;;;;;5056219;28;20111;-70
2022/05/18 07:09:30;;;;;;;13.38;9.95;;;21.80;99.90;;;;;;5055828;28;20056;-70
2022/05/18 07:11:55;;;;;;;16.80;9.20;;;21.90;99.90;;;;;;5038427;28;20071;-70
2022/05/18 07:14:25;;;;;;;17.02;10.10;;;21.90;99.90;;;;;;5055697;28;20048;-73
2022/05/18 07:16:51;;;;;;;20.48;9.68;;;22.00;99.90;;;;;;5038008;28;20053;-69
2022/05/18 07:19:18;;;;;;;14.57;8.73;;;22.10;99.90;;;;;;5038038;28;20049;-69
2022/05/18 07:21:45;;;;;;;15.13;9.73;;;22.30;99.90;;;;;;5055516;28;20033;-69
2022/05/18 07:24:11;;;;;;;13.63;9.30;;;22.30;99.90;;;;;;5053908;28;20518;-70
2022/05/18 07:26:37;;;;;;;12.57;9.45;;;22.40;99.90;;;;;;5060482;28;20520;-71
2022/05/18 07:29:05;;;;;;;18.63;9.13;;;22.50;99.90;;;;;;5059529;28;20183;-72
2022/05/18 07:32:08;;;;;;;17.10;9.35;;;22.60;99.90;;;;;;5060305;28;20511;-70
2022/05/18 07:34:17;;;;;;;;;;;22.80;99.90;;;;;;5056850;28;20126;-70
2022/05/18 07:36:43;;;;;;;15.80;8.97;;;22.80;99.90;;;;;;5040089;28;19921;-73
2022/05/18 07:39:09;;;;;;;22.83;9.25;;;22.80;99.90;;;;;;5062473;28;20082;-71
2022/05/18 07:41:36;;;;;;;17.00;8.73;;;22.90;99.90;;;;;;5062763;28;20056;-69
2022/05/18 07:44:01;;;;;;;12.50;7.90;;;23.00;99.90;;;;;;5057081;28;20048;-69
2022/05/18 07:46:27;;;;;;;13.43;7.95;;;23.10;99.90;;;;;;5053710;28;20081;-69
2022/05/18 07:48:53;;;;;;;15.27;8.07;;;23.10;99.90;;;;;;5037491;28;20080;-69
2022/05/18 07:51:18;;;;;;;11.68;7.10;;;23.20;99.90;;;;;;5054869;28;20052;-69
2022/05/18 07:53:44;;;;;;;13.40;7.13;;;23.20;99.90;;;;;;5037405;28;20044;-69
2022/05/18 07:56:10;;;;;;;10.50;7.22;;;23.40;99.90;;;;;;5055093;28;20053;-69
2022/05/18 07:58:36;;;;;;;14.57;7.13;;;23.50;99.90;;;;;;5038294;28;20049;-69
2022/05/18 08:01:02;;;;;;;12.05;7.03;;;23.70;99.90;;;;;;5054849;28;20067;-69
2022/05/18 08:03:27;;;;;;;10.18;6.10;;;23.90;99.90;;;;;;5054796;28;20045;-69
2022/05/18 08:05:53;;;;;;;10.30;6.38;;;23.90;99.90;;;;;;5054895;28;20049;-69
2022/05/18 08:08:21;;;;;;;12.25;5.85;;;23.90;99.90;;;;;;5054828;28;20052;-69
2022/05/18 08:16:18;;;;;;;8.02;4.03;;;23.90;99.90;;;;;;5036903;28;20084;-69
2022/05/18 08:18:44;;;;;;;10.70;4.85;;;24.10;99.90;;;;;;5054450;28;20044;-69
2022/05/18 08:21:10;;;;;;;8.05;4.10;;;24.20;99.90;;;;;;5054226;28;20048;-70
2022/05/18 08:23:36;;;;;;;9.93;4.82;;;24.50;99.90;;;;;;5054057;28;20079;-69
2022/05/18 08:26:03;;;;;;;7.93;4.53;;;24.70;99.90;;;;;;5053251;28;20088;-73
2022/05/18 08:28:29;;;;;;;7.78;4.45;;;24.90;99.90;;;;;;5058100;28;20522;-70
2022/05/18 08:30:55;;;;;;;8.98;4.55;;;25.10;99.90;;;;;;5074296;28;20049;-69
2022/05/18 08:33:21;;;;;;;9.68;4.32;;;25.30;99.90;;;;;;5046234;28;20091;-70
2022/05/18 08:35:48;;;;;;;10.52;3.97;;;25.20;99.90;;;;;;5054067;28;20041;-70
2022/05/18 08:38:15;;;;;;;8.98;4.20;;;25.40;99.90;;;;;;5054455;28;20049;-69
2022/05/18 08:41:17;;;;;;;9.52;4.20;;;25.50;99.90;;;;;;5054014;28;20060;-69
2022/05/18 08:43:47;;;;;;;9.23;4.90;;;25.50;99.90;;;;;;5053884;28;20052;-69
2022/05/18 08:46:16;;;;;;;9.45;4.47;;;25.40;99.90;;;;;;5052929;28;20506;-71
2022/05/18 08:48:54;;;;;;;8.88;3.58;;;25.30;99.90;;;;;;5053616;28;20178;-69
2022/05/18 08:51:38;;;;;;;9.73;4.30;;;25.30;99.90;;;;;;5054475;28;20098;-70
2022/05/18 08:54:26;;;;;;;7.45;3.60;;;25.40;99.70;;;;;;5054025;28;20049;-70
2022/05/18 08:56:55;;;;;;;8.63;3.67;;;25.60;99.90;;;;;;4995925;28;20064;-75
2022/05/18 08:59:33;;;;;;;7.43;3.63;;;25.90;99.80;;;;;;5053713;28;20037;-87
2022/05/18 09:02:09;;;;;;;7.60;3.33;;;26.10;99.90;;;;;;5036013;28;20041;-73
2022/05/18 09:04:53;;;;;;;10.75;3.22;;;26.10;99.90;;;;;;5053677;28;20041;-71
2022/05/18 09:07:24;;;;;;;9.85;3.50;;;26.30;99.60;;;;;;5035701;28;20510;-71
2022/05/18 09:10:12;;;;;;;6.35;3.38;;;26.50;99.80;;;;;;5035823;28;20053;-71
2022/05/18 09:12:44;;;;;;;11.05;3.63;;;26.40;99.10;;;;;;5053872;28;20079;-71
2022/05/18 09:15:13;;;;;;;5.38;3.35;;;26.30;99.70;;;;;;5052696;28;20424;-71
2022/05/18 09:17:59;;;;;;;9.20;4.38;;;26.60;99.70;;;;;;5053448;28;20052;-71
2022/05/18 09:20:33;;;;;;;7.00;4.07;;;26.60;99.90;;;;;;5053028;28;20543;-71
2022/05/18 09:23:12;;;;;;;5.43;3.22;;;26.50;99.20;;;;;;5053336;28;20119;-71
2022/05/18 09:26:00;;;;;;;7.35;4.40;;;26.80;99.30;;;;;;5059326;28;20139;-71
2022/05/18 09:28:50;;;;;;;7.22;4.50;;;26.90;99.20;;;;;;5056515;28;20508;-71
2022/05/18 09:31:45;;;;;;;10.40;5.05;;;26.80;99.00;;;;;;5059627;28;20086;-71
2022/05/18 09:34:48;;;;;;;7.43;4.10;;;26.60;99.00;;;;;;5073384;28;20056;-72
2022/05/18 09:37:29;;;;;;;9.50;4.75;;;26.90;99.40;;;;;;5073299;28;20105;-71
2022/05/18 09:39:58;;;;;;;10.68;5.32;;;26.90;99.10;;;;;;5073023;28;20040;-71
2022/05/18 09:42:30;;;;;;;10.18;4.32;;;26.90;98.90;;;;;;5046958;28;20123;-72
2022/05/18 09:45:22;;;;;;;10.77;5.10;;;27.00;99.30;;;;;;5058005;28;20178;-72
2022/05/18 09:47:59;;;;;;;10.13;4.45;;;26.80;99.60;;;;;;5052018;28;20045;-71
2022/05/18 09:50:37;;;;;;;8.07;4.45;;;27.10;99.50;;;;;;5035595;28;20502;-72
2022/05/18 09:53:03;;;;;;;12.90;4.78;;;27.20;99.50;;;;;;5056356;28;20048;-72
2022/05/18 09:55:29;;;;;;;10.68;5.30;;;27.30;98.70;;;;;;5057357;28;20045;-72
2022/05/18 09:58:08;;;;;;;9.00;5.20;;;27.30;98.60;;;;;;5057555;28;20102;-72
2022/05/18 10:00:36;;;;;;;7.50;4.97;;;27.50;98.90;;;;;;5039777;28;20182;-72
2022/05/18 10:08:52;;;;;;;11.30;4.57;;;27.80;98.50;;;;;;5057072;28;20056;-72
2022/05/18 10:11:22;;;;;;;10.35;5.20;;;27.80;98.80;;;;;;5039513;28;20099;-72
2022/05/18 10:14:12;;;;;;;12.27;5.68;;;27.80;98.50;;;;;;5056804;28;20502;-72
2022/05/18 10:16:42;;;;;;;9.43;5.10;;;28.10;98.50;;;;;;5056684;28;20048;-72
2022/05/18 10:19:36;;;;;;;10.10;5.60;;;28.20;98.60;;;;;;5057028;28;20055;-80
2022/05/18 10:22:05;;;;;;;13.48;5.93;;;27.80;98.30;;;;;;5027333;28;20053;-72
2022/05/18 10:24:34;;;;;;;10.57;4.75;;;27.80;98.60;;;;;;5055591;28;20061;-71
2022/05/18 10:27:23;;;;;;;10.65;6.10;;;28.00;98.90;;;;;;5075223;28;20056;-72
2022/05/18 10:30:14;;;;;;;9.13;6.10;;;28.10;98.80;;;;;;5058199;28;20485;-72
2022/05/18 10:33:01;;;;;;;13.20;4.55;;;28.40;98.60;;;;;;5076849;28;20044;-72
2022/05/18 10:35:50;;;;;;;10.85;5.22;;;28.90;99.00;;;;;;5076955;28;20044;-71
2022/05/18 10:38:23;;;;;;;10.90;5.05;;;29.20;98.70;;;;;;5059076;28;20105;-72
2022/05/18 10:40:51;;;;;;;10.60;5.88;;;29.30;98.60;;;;;;5058936;28;20056;-72
2022/05/18 10:43:41;;;;;;;9.43;4.32;;;28.60;98.40;;;;;;5058638;28;20048;-72
2022/05/18 10:46:19;;;;;;;8.65;3.60;;;28.90;98.50;;;;;;5076064;28;20048;-72
2022/05/18 10:48:59;;;;;;;10.88;5.18;;;29.20;98.80;;;;;;5059131;28;20440;-72
2022/05/18 10:51:39;;;;;;;12.88;5.40;;;29.10;98.30;;;;;;5075450;28;20417;-71
2022/05/18 10:54:09;;;;;;;12.50;5.80;;;29.20;98.50;;;;;;5058858;28;20059;-71
2022/05/18 10:56:35;;;;;;;8.52;5.28;;;29.10;98.20;;;;;;5076341;28;20055;-72
2022/05/18 10:59:28;;;;;;;10.23;6.22;;;29.20;98.20;;;;;;5058524;28;20053;-71
2022/05/18 11:02:10;;;;;;;10.65;6.18;;;29.50;98.30;;;;;;5076065;28;20045;-72
2022/05/18 11:04:55;;;;;;;10.85;5.80;;;29.70;98.40;;;;;;5066186;28;20041;-71
2022/05/18 11:07:26;;;;;;;11.70;6.70;;;30.00;98.70;;;;;;5038228;28;20049;-71
2022/05/18 11:09:53;;;;;;;12.73;5.78;;;30.10;98.30;;;;;;5053292;28;20546;-70
2022/05/18 11:12:56;;;;;;;10.57;6.22;;;30.00;98.20;;;;;;5075631;28;20394;-71
2022/05/18 11:15:34;;;;;;;9.88;5.97;;;30.10;98.40;;;;;;5074546;28;20071;-69
2022/05/18 11:18:19;;;;;;;15.55;6.45;;;30.50;99.20;;;;;;5075470;28;20045;-72
2022/05/18 11:20:57;;;;;;;12.65;7.28;;;30.80;98.30;;;;;;5055673;28;20041;-70
2022/05/18 11:23:38;;;;;;;10.57;7.65;;;30.40;98.20;;;;;;5037759;28;20501;-70
2022/05/18 11:26:26;;;;;;;10.43;7.50;;;30.50;98.50;;;;;;5037949;28;20383;-70
2022/05/18 11:28:59;;;;;;;10.48;7.75;;;30.90;98.40;;;;;;5055510;28;20057;-71
2022/05/18 11:31:33;;;;;;;8.27;7.13;;;30.70;98.10;;;;;;5056015;28;20048;-69
2022/05/18 11:34:12;;;;;;;13.63;6.95;;;30.80;98.70;;;;;;5055348;28;20433;-69
2022/05/18 11:36:46;;;;;;;15.93;8.60;;;31.10;98.10;;;;;;5055164;28;20132;-70
2022/05/18 11:39:36;;;;;;;15.57;7.40;;;31.20;98.10;;;;;;5055137;28;20055;-69
2022/05/18 11:42:12;;;;;;;14.60;8.07;;;31.00;98.80;;;;;;5055117;28;20041;-69
2022/05/18 11:44:43;;;;;;;;;;;31.00;97.90;;;;;;5055590;28;20060;-69
2022/05/18 11:47:34;;;;;;;10.50;5.45;;;30.80;97.80;;;;;;5055025;28;20332;-69
2022/05/18 11:50:27;;;;;;;12.95;5.90;;;30.50;97.60;;;;;;5055490;28;20497;-68
2022/05/18 11:53:10;;;;;;;14.10;6.60;;;30.50;97.90;;;;;;5037514;28;20140;-68
2022/05/18 11:55:53;;;;;;;8.98;5.53;;;30.20;97.80;;;;;;5054773;28;20052;-69
2022/05/18 11:58:48;;;;;;;9.88;5.63;;;30.20;97.60;;;;;;5065063;28;20040;-67
2022/05/18 12:01:36;;;;;;;12.18;5.20;;;29.80;97.60;;;;;;5062618;28;20484;-70
2022/05/18 12:04:04;;;;;;;7.72;3.97;;;29.90;97.70;;;;;;5059433;28;20044;-68
2022/05/18 12:07:01;;;;;;;8.00;5.00;;;30.00;98.70;;;;;;5059156;28;20049;-72
2022/05/18 12:09:45;;;;;;;;;;;30.20;98.60;;;;;;5037529;28;20095;-71
2022/05/18 12:12:48;;;;;;;6.93;3.75;;;30.90;98.20;;;;;;5037190;28;19920;-71
2022/05/18 12:15:29;;;;;;;10.65;5.30;;;30.90;98.20;;;;;;5053922;28;20049;-69
2022/05/18 12:18:29;;;;;;;9.48;4.43;;;30.10;97.90;;;;;;5054203;28;20045;-69
2022/05/18 12:21:22;;;;;;;13.90;4.15;;;29.70;97.90;;;;;;5040456;28;20131;-70
2022/05/18 12:23:53;;;;;;;6.47;3.00;;;29.40;98.00;;;;;;5053879;28;20079;-69
2022/05/18 12:26:21;;;;;;;8.82;3.60;;;29.70;98.30;;;;;;5054477;28;20056;-69
2022/05/18 12:28:48;;;;;;;5.95;3.38;;;29.60;99.10;;;;;;5054406;28;20048;-69
2022/05/18 12:31:14;;;;;;;9.85;4.00;;;29.60;98.00;;;;;;5036472;28;20139;-69
2022/05/18 12:34:01;;;;;;;6.05;3.97;;;29.60;98.10;;;;;;5036637;28;20545;-69
2022/05/18 12:36:40;;;;;;;4.85;3.00;;;29.40;98.30;;;;;;5037020;28;20549;-70
2022/05/18 12:39:38;;;;;;;10.50;3.15;;;29.50;98.30;;;;;;5036690;28;20087;-69
2022/05/18 12:42:08;;;;;;;8.68;2.83;;;29.80;99.00;;;;;;5022847;28;20563;-72
2022/05/18 12:44:34;;;;;;;5.22;3.50;;;30.00;99.00;;;;;;5036050;28;20053;-72
2022/05/18 12:47:03;;;;;;;6.93;3.45;;;30.20;98.70;;;;;;5036641;28;20409;-72
2022/05/18 12:49:42;;;;;;;7.25;3.58;;;30.40;99.10;;;;;;5036520;28;20056;-71
2022/05/18 12:52:17;;;;;;;8.05;4.60;;;30.60;98.90;;;;;;5036484;28;20061;-72
2022/05/18 12:54:54;;;;;;;9.32;3.80;;;30.00;98.20;;;;;;5052117;28;20493;-73
2022/05/18 12:57:43;;;;;;;11.45;4.10;;;29.70;98.60;;;;;;5056039;28;20055;-73
2022/05/18 13:00:09;;;;;;;10.35;4.07;;;29.20;98.40;;;;;;5041369;28;20051;-73
2022/05/18 13:02:35;;;;;;;6.88;3.00;;;28.80;98.50;;;;;;5035897;28;20052;-73
2022/05/18 13:05:08;;;;;;;5.75;3.20;;;28.60;98.60;;;;;;5035771;28;20049;-73
2022/05/18 13:07:36;;;;;;;11.25;4.10;;;28.20;98.40;;;;;;5036189;28;20053;-72
2022/05/18 13:10:31;;;;;;;6.75;3.50;;;28.00;98.70;;;;;;5035853;28;20397;-73
2022/05/18 13:13:22;;;;;;;8.48;4.75;;;27.90;99.00;;;;;;5039631;28;20091;-73
2022/05/18 13:15:54;;;;;;;9.95;5.70;;;27.90;99.20;;;;;;5034524;28;20060;-74
2022/05/18 13:18:36;;;;;;;17.50;6.32;;;28.10;99.60;;;;;;5035872;28;20045;-73
2022/05/18 13:21:21;;;;;;;10.55;5.47;;;28.50;99.70;;;;;;5036034;28;20057;-86